Neuquén/Presidente Perón International Airport

Airport
ICAO code: 
SAZN
IATA Code: 
NQN
Summary
ICAO Region: 
CARSAM
Territory: 
Location: 
Neuquén, Neuquén
Serving: 
Neuquén
Elevation: 
961 ft
Coordinates: 
Aerial View: 
38° 57' 7.058" S, 68° 8' 25.149" W
Metar
Observation
SAZN 192200Z 11008KT 9999 BKN025 21/14 Q1016
Station
Neuquen Aerodrome
Date/Time
2022-01-19 22:00:00
Wind direction
110°
Wind speed
08 kts
Lowest cloud amount
broken clouds
Temperature
21°C
Dew point
14°C
Humidity
64%
QNH
1016 hPa
Weather condition
n/a

Presidente Perón International Airport is an airport in Neuquén Province, Argentina serving the cities of Neuquén, Cipolletti, Plottier, Centenario, and General Roca.

Runways

Designator Length Width Surface Rops
9/27 2570 45 ASP Yes/Yes
Airport map: 
Aerial View: 

SKYbrary Partners:

Safety knowledge contributed by: